createdAt,value
2023-07-27T00:03:11.874Z,16.60
2023-07-27T00:08:13.839Z,16.70
2023-07-27T00:13:17.737Z,16.70
2023-07-27T00:18:19.611Z,16.60
2023-07-27T00:23:21.497Z,16.40
2023-07-27T00:28:23.273Z,16.30
2023-07-27T00:33:25.120Z,16.30
2023-07-27T00:38:29.173Z,16.20
2023-07-27T00:43:31.229Z,16.20
2023-07-27T00:48:33.398Z,16.10
2023-07-27T00:53:35.711Z,16.10
2023-07-27T00:58:40.040Z,16.10
2023-07-27T01:03:41.842Z,16.00
2023-07-27T01:08:43.897Z,15.90
2023-07-27T01:14:04.317Z,15.80
2023-07-27T01:19:30.853Z,15.80
2023-07-27T01:25:10.979Z,15.70
2023-07-27T01:30:18.786Z,15.70
2023-07-27T01:35:24.119Z,15.70
2023-07-27T01:40:27.104Z,15.70
2023-07-27T01:45:28.989Z,15.60
2023-07-27T01:50:31.313Z,15.60
2023-07-27T01:55:35.748Z,15.60
2023-07-27T02:00:38.121Z,15.60
2023-07-27T02:05:39.996Z,15.60
2023-07-27T02:10:48.153Z,15.70
2023-07-27T02:15:56.941Z,15.60
2023-07-27T02:20:59.587Z,15.70
2023-07-27T02:26:01.486Z,15.60
2023-07-27T02:31:03.434Z,15.60
2023-07-27T02:36:06.225Z,15.70
2023-07-27T02:41:11.545Z,15.70
2023-07-27T02:46:15.409Z,15.80
2023-07-27T02:51:17.450Z,15.80
2023-07-27T02:56:19.367Z,15.80
2023-07-27T03:01:24.461Z,15.80
2023-07-27T03:06:40.705Z,15.90
2023-07-27T03:11:44.681Z,16.00
2023-07-27T03:16:46.522Z,16.10
2023-07-27T03:21:49.545Z,16.10
2023-07-27T03:26:51.408Z,16.10
2023-07-27T03:31:53.242Z,16.10
2023-07-27T03:36:55.059Z,16.20
2023-07-27T03:41:56.892Z,16.40
2023-07-27T03:46:58.993Z,16.40
2023-07-27T03:52:00.831Z,16.50
2023-07-27T03:57:03.309Z,16.50
2023-07-27T04:02:05.607Z,16.50
2023-07-27T04:07:07.584Z,16.50
2023-07-27T04:12:09.794Z,16.50
2023-07-27T04:17:11.755Z,16.60
2023-07-27T04:22:13.772Z,16.60
2023-07-27T04:27:15.613Z,16.80
2023-07-27T04:32:17.655Z,16.80
2023-07-27T04:37:19.673Z,16.70
2023-07-27T04:42:21.532Z,16.80
2023-07-27T04:47:23.662Z,17.00
2023-07-27T04:52:25.546Z,17.00
2023-07-27T04:57:27.403Z,17.00
2023-07-27T05:02:29.304Z,17.20
2023-07-27T05:07:31.148Z,17.20
2023-07-27T05:12:33.362Z,17.10
2023-07-27T05:17:35.278Z,17.30
2023-07-27T05:22:37.118Z,17.40
2023-07-27T05:27:38.930Z,17.40
2023-07-27T05:32:40.827Z,17.60
2023-07-27T05:37:47.412Z,17.80
2023-07-27T05:42:49.289Z,17.90
2023-07-27T05:47:51.217Z,17.90
2023-07-27T05:52:53.086Z,17.80
2023-07-27T05:57:55.757Z,17.80
2023-07-27T06:02:58.656Z,17.90
2023-07-27T06:08:00.495Z,17.80
2023-07-27T06:13:02.315Z,17.90
2023-07-27T06:18:06.597Z,17.90
2023-07-27T06:23:08.726Z,18.00
2023-07-27T06:28:11.013Z,18.00
2023-07-27T06:33:13.048Z,18.20
2023-07-27T06:38:15.057Z,18.00
2023-07-27T06:43:18.085Z,18.30
2023-07-27T06:48:20.104Z,18.60
2023-07-27T06:53:22.155Z,18.60
2023-07-27T06:58:23.932Z,18.30
2023-07-27T07:03:26.196Z,18.30
2023-07-27T07:08:28.185Z,18.30
2023-07-27T07:13:30.428Z,18.40
2023-07-27T07:18:32.411Z,18.40
2023-07-27T07:23:34.266Z,18.70
2023-07-27T07:28:36.073Z,18.90
2023-07-27T07:33:37.992Z,18.80
2023-07-27T07:38:40.350Z,18.70
2023-07-27T07:43:42.171Z,18.70
2023-07-27T07:48:43.988Z,18.60
2023-07-27T07:53:45.819Z,18.60
2023-07-27T07:58:47.673Z,18.60
2023-07-27T08:03:49.658Z,18.80
2023-07-27T08:08:51.530Z,19.00
2023-07-27T08:13:53.715Z,19.00
2023-07-27T08:18:55.566Z,19.20
2023-07-27T08:23:57.388Z,19.20
2023-07-27T08:28:59.277Z,19.20
2023-07-27T08:34:01.212Z,19.30
2023-07-27T08:39:03.662Z,19.40
2023-07-27T08:44:08.092Z,19.30
2023-07-27T08:49:14.584Z,19.40
2023-07-27T08:54:16.529Z,19.70
2023-07-27T08:59:18.737Z,19.40
2023-07-27T09:04:20.698Z,20.10
2023-07-27T09:09:29.876Z,20.30
2023-07-27T09:14:38.843Z,20.50
2023-07-27T09:19:43.159Z,20.80
2023-07-27T09:24:45.383Z,21.10
2023-07-27T09:29:47.254Z,21.50
2023-07-27T09:34:56.080Z,21.40
2023-07-27T09:40:13.913Z,21.30
2023-07-27T09:45:16.078Z,21.00
2023-07-27T09:50:18.422Z,20.40
2023-07-27T09:55:22.059Z,20.10
2023-07-27T10:00:23.993Z,20.10
2023-07-27T10:05:25.886Z,20.10
2023-07-27T10:10:40.757Z,19.80
2023-07-27T10:15:44.193Z,19.80
2023-07-27T10:20:46.137Z,19.70
2023-07-27T10:25:57.016Z,19.70
2023-07-27T10:31:18.965Z,19.40
2023-07-27T10:36:21.872Z,19.10
2023-07-27T10:41:25.830Z,19.10
2023-07-27T10:46:30.618Z,19.30
2023-07-27T10:51:35.444Z,19.10
2023-07-27T10:56:37.561Z,18.20
2023-07-27T11:01:39.932Z,17.90
2023-07-27T11:06:44.145Z,18.00
2023-07-27T11:11:46.004Z,18.20
2023-07-27T11:16:47.980Z,17.50
2023-07-27T11:21:51.816Z,17.40
2023-07-27T11:26:54.293Z,17.40
2023-07-27T11:31:59.342Z,17.50
2023-07-27T11:37:01.756Z,18.10
2023-07-27T11:42:10.782Z,17.90
2023-07-27T11:47:12.742Z,18.00
2023-07-27T11:52:18.990Z,18.40
2023-07-27T11:57:26.798Z,18.70
2023-07-27T12:02:31.521Z,18.50
2023-07-27T12:18:11.614Z,18.00
2023-07-27T12:33:27.082Z,18.50
2023-07-27T12:43:33.774Z,18.60
2023-07-27T12:48:35.642Z,18.60
2023-07-27T12:53:38.404Z,18.70
2023-07-27T12:58:41.103Z,18.80
2023-07-27T13:03:43.111Z,19.10
2023-07-27T13:08:45.094Z,19.20
2023-07-27T13:13:46.906Z,19.30
2023-07-27T13:18:48.745Z,19.20
2023-07-27T13:23:50.567Z,19.50
2023-07-27T13:28:52.376Z,19.30
2023-07-27T13:33:54.186Z,18.90
2023-07-27T13:38:56.092Z,19.00
2023-07-27T13:43:57.906Z,19.00
2023-07-27T13:48:59.753Z,19.00
2023-07-27T13:54:01.580Z,19.40
2023-07-27T13:59:03.562Z,19.40
2023-07-27T14:04:05.446Z,19.40
2023-07-27T14:09:07.393Z,19.20
2023-07-27T14:14:09.740Z,19.20
2023-07-27T14:19:11.706Z,19.40
2023-07-27T14:24:13.569Z,19.50
2023-07-27T14:29:15.527Z,19.40
2023-07-27T14:34:17.419Z,19.50
2023-07-27T14:39:19.294Z,19.60
2023-07-27T14:44:21.566Z,19.60
2023-07-27T14:49:24.959Z,19.60
2023-07-27T14:54:26.892Z,19.70
2023-07-27T14:59:28.942Z,19.50
2023-07-27T15:09:36.361Z,19.60
2023-07-27T15:14:38.182Z,19.40
2023-07-27T15:19:40.019Z,19.50
2023-07-27T15:24:41.967Z,19.50
2023-07-27T15:29:55.737Z,19.60
2023-07-27T15:34:57.557Z,19.50
2023-07-27T15:39:59.439Z,19.30
2023-07-27T15:45:02.015Z,19.40
2023-07-27T15:50:04.950Z,19.30
2023-07-27T15:55:08.149Z,19.30
2023-07-27T16:00:10.700Z,19.20
2023-07-27T16:05:12.942Z,19.50
2023-07-27T16:10:15.009Z,19.40
2023-07-27T16:15:18.705Z,19.40
2023-07-27T16:20:20.604Z,19.40
2023-07-27T16:25:23.355Z,19.60
2023-07-27T16:30:25.256Z,19.60
2023-07-27T16:35:30.048Z,19.70
2023-07-27T16:40:31.953Z,19.80
2023-07-27T16:45:38.810Z,20.00
2023-07-27T16:50:41.283Z,20.00
2023-07-27T16:55:43.186Z,20.00
2023-07-27T17:00:45.548Z,19.90
2023-07-27T17:05:47.453Z,19.90
2023-07-27T17:11:01.160Z,20.00
2023-07-27T17:16:05.481Z,19.80
2023-07-27T17:21:09.339Z,19.90
2023-07-27T17:26:11.326Z,19.80
2023-07-27T17:31:14.629Z,19.80
2023-07-27T17:36:16.531Z,19.80
2023-07-27T17:41:19.440Z,20.00
2023-07-27T17:46:21.386Z,20.10
2023-07-27T17:51:23.371Z,19.70
2023-07-27T17:56:25.262Z,19.60
2023-07-27T18:01:27.206Z,19.80
2023-07-27T18:06:29.123Z,20.00
2023-07-27T18:11:30.993Z,20.00
2023-07-27T18:16:32.902Z,20.20
2023-07-27T18:21:34.855Z,20.20
2023-07-27T18:26:36.913Z,20.20
2023-07-27T18:31:38.797Z,20.20
2023-07-27T18:36:40.982Z,20.20
2023-07-27T18:41:42.787Z,20.10
2023-07-27T18:46:44.626Z,20.10
2023-07-27T18:51:46.417Z,20.00
2023-07-27T18:56:48.254Z,20.00
2023-07-27T19:01:50.182Z,20.00
2023-07-27T19:06:53.093Z,19.70
2023-07-27T19:11:54.906Z,19.60
2023-07-27T19:16:59.100Z,19.60
2023-07-27T19:22:00.954Z,19.60
2023-07-27T19:27:02.957Z,19.60
2023-07-27T19:32:05.114Z,19.60
2023-07-27T19:37:07.028Z,19.60
2023-07-27T19:42:11.236Z,19.60
2023-07-27T19:47:13.144Z,19.70
2023-07-27T19:52:14.997Z,19.70
2023-07-27T19:57:16.976Z,19.70
2023-07-27T20:02:18.800Z,19.70
2023-07-27T20:07:23.672Z,19.70
2023-07-27T20:12:25.881Z,19.80
2023-07-27T20:17:27.782Z,19.80
2023-07-27T20:22:29.599Z,19.90
2023-07-27T20:27:31.437Z,19.90
2023-07-27T20:32:33.302Z,20.00
2023-07-27T20:37:35.137Z,20.00
2023-07-27T20:42:36.986Z,20.00
2023-07-27T20:47:38.962Z,20.00
2023-07-27T20:52:42.489Z,20.10
2023-07-27T20:57:46.180Z,20.10
2023-07-27T21:02:48.203Z,20.00
2023-07-27T21:07:50.069Z,19.90
2023-07-27T21:12:51.883Z,19.90
2023-07-27T21:17:53.721Z,19.90
2023-07-27T21:22:55.771Z,19.90
2023-07-27T21:27:57.626Z,19.80
2023-07-27T21:32:59.464Z,19.60
2023-07-27T21:38:01.511Z,19.90
2023-07-27T21:43:04.049Z,19.80
2023-07-27T21:48:06.386Z,19.90
2023-07-27T21:53:08.487Z,19.90
2023-07-27T21:58:10.422Z,19.70
2023-07-27T22:03:13.026Z,19.70
2023-07-27T22:08:15.152Z,19.70
2023-07-27T22:13:17.031Z,19.60
2023-07-27T22:18:19.090Z,19.70
2023-07-27T22:23:21.233Z,19.70
2023-07-27T22:28:23.164Z,19.80
2023-07-27T22:33:25.004Z,19.90
2023-07-27T22:38:26.788Z,20.00
2023-07-27T22:43:28.657Z,20.10
2023-07-27T22:48:30.478Z,20.10
2023-07-27T22:53:32.328Z,20.20
2023-07-27T22:58:34.187Z,20.10
2023-07-27T23:03:35.996Z,20.20
2023-07-27T23:08:37.884Z,20.20
2023-07-27T23:13:39.670Z,20.10
2023-07-27T23:18:41.506Z,20.00
2023-07-27T23:23:43.312Z,20.00
2023-07-27T23:28:45.139Z,19.80
2023-07-27T23:33:46.974Z,19.60
2023-07-27T23:38:48.789Z,19.70
2023-07-27T23:43:50.604Z,19.60
2023-07-27T23:48:52.418Z,19.30
2023-07-27T23:53:54.267Z,19.10
2023-07-27T23:58:58.804Z,19.20
